Time;durP1;ratioP1;P1;durP2;ratioP2;P2;SDS_P1;SDS_P2;PMS_P1;PMS_P2;Temp;Humidity;BMP_temperature;BMP_pressure;BME280_temperature;BME280_humidity;BME280_pressure;Samples;Min_cycle;Max_cycle;Signal;HPM_P1;HPM_P2
2023/08/24 00:01:58;;;;;;;6.10;4.20;;;;;22.90;98800.00;;;;5118998;28;20150;-66
2023/08/24 00:04:24;;;;;;;4.70;3.88;;;;;23.00;98802.00;;;;5118186;28;20115;-66
2023/08/24 00:06:51;;;;;;;4.15;3.75;;;;;23.10;98801.00;;;;5115283;28;20044;-66
2023/08/24 00:09:18;;;;;;;5.90;3.80;;;;;23.10;98800.00;;;;5117066;28;20043;-66
2023/08/24 00:11:45;;;;;;;7.07;3.75;;;;;23.00;98807.00;;;;5118396;28;20040;-65
2023/08/24 00:14:12;;;;;;;5.35;3.97;;;;;23.00;98804.00;;;;5114042;28;20080;-65
2023/08/24 00:16:38;;;;;;;5.40;3.88;;;;;23.00;98794.00;;;;5119081;28;20084;-66
2023/08/24 00:19:05;;;;;;;6.80;3.70;;;;;23.10;98795.00;;;;5117754;28;20095;-66
2023/08/24 00:21:31;;;;;;;4.60;4.07;;;;;23.10;98791.00;;;;5105035;28;20114;-66
2023/08/24 00:23:59;;;;;;;5.13;3.97;;;;;23.10;98795.00;;;;5111365;28;20051;-66
2023/08/24 00:26:26;;;;;;;4.82;3.60;;;;;23.20;98796.00;;;;5109641;28;20051;-66
2023/08/24 00:28:52;;;;;;;3.95;3.45;;;;;23.10;98788.00;;;;5108712;28;20128;-66
2023/08/24 00:31:19;;;;;;;5.70;3.60;;;;;23.20;98786.00;;;;5104006;28;20112;-65
2023/08/24 00:33:47;;;;;;;7.53;4.25;;;;;23.20;98778.00;;;;5099625;28;20465;-67
2023/08/24 00:36:15;;;;;;;4.75;3.47;;;;;23.00;98776.00;;;;5096284;28;20077;-66
2023/08/24 00:38:43;;;;;;;4.75;4.18;;;;;22.90;98769.00;;;;5094906;28;20042;-66
2023/08/24 00:41:09;;;;;;;6.57;4.00;;;;;22.90;98769.00;;;;5092784;28;20562;-66
2023/08/24 00:43:38;;;;;;;8.27;3.95;;;;;22.80;98764.00;;;;5092584;28;20075;-66
2023/08/24 00:46:04;;;;;;;3.88;3.15;;;;;22.80;98771.00;;;;5092240;28;20048;-66
2023/08/24 00:48:31;;;;;;;4.75;3.78;;;;;22.70;98770.00;;;;5093441;28;20040;-66
2023/08/24 00:51:02;;;;;;;5.20;3.78;;;;;22.60;98769.00;;;;5092432;28;20074;-66
2023/08/24 00:53:30;;;;;;;5.57;4.35;;;;;22.60;98769.00;;;;5093865;28;20044;-66
2023/08/24 00:55:57;;;;;;;5.60;3.83;;;;;22.70;98764.00;;;;5093228;28;20101;-66
2023/08/24 00:58:26;;;;;;;6.00;3.72;;;;;22.80;98769.00;;;;5091961;28;20058;-67
2023/08/24 01:00:56;;;;;;;7.60;4.05;;;;;22.70;98768.00;;;;5091637;28;20166;-66
2023/08/24 01:03:24;;;;;;;7.68;3.95;;;;;22.50;98773.00;;;;5091923;28;20117;-66
2023/08/24 01:05:51;;;;;;;5.55;3.90;;;;;22.50;98776.00;;;;5091737;28;20071;-67
2023/08/24 01:08:18;;;;;;;6.90;3.83;;;;;22.60;98776.00;;;;5092015;28;20134;-66
2023/08/24 01:10:57;;;;;;;4.47;3.72;;;;;22.60;98772.00;;;;5091689;28;20101;-66
2023/08/24 01:13:55;;;;;;;5.55;4.22;;;;;22.60;98787.00;;;;5091895;28;20048;-66
2023/08/24 01:16:28;;;;;;;4.47;3.50;;;;;22.70;98792.00;;;;5049061;28;20054;-66
2023/08/24 01:19:00;;;;;;;4.97;4.32;;;;;22.80;98798.00;;;;5093131;28;20032;-66
2023/08/24 01:21:28;;;;;;;7.47;4.00;;;;;22.80;98797.00;;;;5091249;28;20048;-66
2023/08/24 01:24:12;;;;;;;5.43;3.45;;;;;22.80;98791.00;;;;5091491;28;20079;-66
2023/08/24 01:26:40;;;;;;;4.35;3.88;;;;;22.80;98785.00;;;;5092771;28;20048;-66
2023/08/24 01:29:08;;;;;;;5.32;3.95;;;;;22.80;98795.00;;;;5092728;28;20048;-66
2023/08/24 01:31:34;;;;;;;5.20;3.97;;;;;22.70;98791.00;;;;5092717;28;20038;-66
2023/08/24 01:34:01;;;;;;;6.50;3.60;;;;;22.50;98786.00;;;;5091241;28;20044;-66
2023/08/24 01:36:28;;;;;;;6.78;3.80;;;;;22.40;98787.00;;;;5091269;28;20105;-66
2023/08/24 01:39:06;;;;;;;4.43;3.83;;;;;22.40;98800.00;;;;5074792;28;20097;-66
2023/08/24 01:41:38;;;;;;;6.47;4.25;;;;;22.50;98798.00;;;;5093257;28;20132;-66
2023/08/24 01:44:06;;;;;;;7.07;4.45;;;;;22.60;98794.00;;;;5092946;28;20515;-66
2023/08/24 01:46:34;;;;;;;5.78;3.95;;;;;22.50;98782.00;;;;5092553;28;20090;-66
2023/08/24 01:49:03;;;;;;;4.45;3.85;;;;;22.50;98776.00;;;;5092598;28;20044;-66
2023/08/24 01:51:30;;;;;;;5.43;3.80;;;;;22.40;98779.00;;;;5091196;28;20059;-66
2023/08/24 01:53:58;;;;;;;5.63;4.00;;;;;22.10;98775.00;;;;5092421;28;20514;-66
2023/08/24 01:56:25;;;;;;;4.75;4.30;;;;;22.10;98767.00;;;;5092892;28;20508;-66
2023/08/24 01:58:52;;;;;;;4.50;3.88;;;;;22.10;98768.00;;;;5091124;28;20712;-66
2023/08/24 02:01:18;;;;;;;5.45;3.97;;;;;22.20;98765.00;;;;5091418;28;20075;-66
2023/08/24 02:03:45;;;;;;;5.57;4.18;;;;;22.20;98766.00;;;;5091293;28;20123;-66
2023/08/24 02:06:12;;;;;;;4.32;3.92;;;;;22.10;98754.00;;;;5090967;28;20040;-66
2023/08/24 02:08:39;;;;;;;4.80;3.90;;;;;22.10;98739.00;;;;5091499;28;20043;-66
2023/08/24 02:11:05;;;;;;;4.40;4.00;;;;;22.10;98734.00;;;;5092407;28;20044;-66
2023/08/24 02:13:32;;;;;;;5.85;4.30;;;;;22.10;98730.00;;;;5092624;28;20048;-66
2023/08/24 02:16:07;;;;;;;7.47;4.25;;;;;22.10;98732.00;;;;5091433;28;20048;-66
2023/08/24 02:18:35;;;;;;;4.20;3.70;;;;;22.20;98724.00;;;;5091181;28;20044;-66
2023/08/24 02:21:11;;;;;;;5.13;4.13;;;;;22.10;98715.00;;;;5092725;28;20036;-66
2023/08/24 02:23:39;;;;;;;5.85;3.92;;;;;22.10;98717.00;;;;5091240;28;20040;-66
2023/08/24 02:26:06;;;;;;;4.68;3.78;;;;;22.10;98716.00;;;;5091589;28;20131;-66
2023/08/24 02:28:33;;;;;;;4.20;3.80;;;;;22.00;98700.00;;;;5094596;28;20051;-66
2023/08/24 02:31:01;;;;;;;4.05;3.60;;;;;21.90;98701.00;;;;5094716;28;20403;-67
2023/08/24 02:33:28;;;;;;;4.40;3.65;;;;;21.90;98698.00;;;;5077754;28;20416;-66
2023/08/24 02:35:55;;;;;;;4.90;4.05;;;;;21.90;98687.00;;;;5095320;28;20051;-67
2023/08/24 02:38:23;;;;;;;4.50;4.00;;;;;21.80;98677.00;;;;5094333;28;20079;-67
2023/08/24 02:41:00;;;;;;;4.80;3.92;;;;;21.80;98673.00;;;;5095411;28;20124;-66
2023/08/24 02:43:26;;;;;;;5.65;4.15;;;;;21.80;98668.00;;;;5095693;28;20066;-67
2023/08/24 02:45:53;;;;;;;4.97;4.07;;;;;21.80;98663.00;;;;5095488;28;20040;-67
2023/08/24 02:48:21;;;;;;;6.50;4.07;;;;;21.90;98647.00;;;;5094090;28;20048;-66
2023/08/24 02:50:47;;;;;;;5.80;4.40;;;;;21.80;98635.00;;;;5094076;28;20131;-66
2023/08/24 02:53:14;;;;;;;5.13;4.28;;;;;21.80;98625.00;;;;5095785;28;20040;-67
2023/08/24 02:55:40;;;;;;;5.72;3.90;;;;;21.80;98619.00;;;;5095865;28;20135;-67
2023/08/24 02:58:07;;;;;;;4.63;3.90;;;;;21.80;98611.00;;;;5094140;28;20086;-66
2023/08/24 03:00:38;;;;;;;11.15;3.55;;;;;21.80;98594.00;;;;5095576;28;20036;-67
2023/08/24 03:03:07;;;;;;;8.52;4.20;;;;;21.80;98594.00;;;;5095427;28;20036;-67
2023/08/24 03:05:34;;;;;;;6.65;3.58;;;;;21.80;98589.00;;;;5094075;28;20527;-66
2023/08/24 03:08:01;;;;;;;5.30;4.28;;;;;21.70;98589.00;;;;5093796;28;20086;-66
2023/08/24 03:10:27;;;;;;;6.15;4.50;;;;;21.60;98598.00;;;;5094986;28;20473;-67
2023/08/24 03:12:54;;;;;;;5.72;4.07;;;;;21.50;98604.00;;;;5077196;28;20622;-67
2023/08/24 03:15:21;;;;;;;5.35;3.83;;;;;21.40;98595.00;;;;5095157;28;20101;-66
2023/08/24 03:17:47;;;;;;;5.07;3.88;;;;;21.40;98594.00;;;;5094550;28;20048;-66
2023/08/24 03:20:16;;;;;;;5.25;4.18;;;;;21.30;98591.00;;;;5093500;28;20051;-67
2023/08/24 03:22:43;;;;;;;5.70;3.97;;;;;21.50;98598.00;;;;5095027;28;20040;-65
2023/08/24 03:25:09;;;;;;;5.80;3.90;;;;;21.70;98598.00;;;;5093346;28;20067;-66
2023/08/24 03:27:38;;;;;;;6.05;3.83;;;;;21.80;98611.00;;;;5093521;28;20071;-66
2023/08/24 03:30:07;;;;;;;5.40;3.55;;;;;22.00;98612.00;;;;5093390;28;20067;-66
2023/08/24 03:32:33;;;;;;;4.80;4.07;;;;;22.10;98622.00;;;;5093071;28;20051;-66
2023/08/24 03:35:01;;;;;;;5.60;3.75;;;;;22.20;98623.00;;;;5093201;28;20052;-66
2023/08/24 03:37:28;;;;;;;5.80;3.95;;;;;22.30;98617.00;;;;5092568;28;20075;-67
2023/08/24 03:39:55;;;;;;;4.47;4.03;;;;;22.30;98614.00;;;;5094056;28;20107;-67
2023/08/24 03:42:21;;;;;;;6.30;4.22;;;;;22.20;98605.00;;;;5093187;28;20044;-67
2023/08/24 03:44:48;;;;;;;6.13;4.00;;;;;22.20;98604.00;;;;5093086;28;20044;-67
2023/08/24 03:47:15;;;;;;;5.88;4.07;;;;;22.30;98609.00;;;;5076102;28;20131;-67
2023/08/24 03:49:43;;;;;;;5.40;3.92;;;;;22.40;98612.00;;;;5092942;28;20120;-67
2023/08/24 03:52:10;;;;;;;5.22;4.10;;;;;22.40;98611.00;;;;5094771;28;20043;-67
2023/08/24 03:54:40;;;;;;;9.20;5.43;;;;;22.40;98605.00;;;;5077944;28;20459;-67
2023/08/24 03:57:07;;;;;;;8.45;5.03;;;;;22.40;98604.00;;;;5077614;28;20043;-67
2023/08/24 03:59:35;;;;;;;5.97;5.25;;;;;22.50;98601.00;;;;5093993;28;20044;-67
2023/08/24 04:02:03;;;;;;;5.93;4.55;;;;;22.50;98591.00;;;;5093481;28;20048;-67
2023/08/24 04:04:33;;;;;;;7.30;5.50;;;;;22.40;98591.00;;;;5093224;28;20101;-67
2023/08/24 04:07:00;;;;;;;7.05;4.75;;;;;22.50;98585.00;;;;5094679;28;20050;-67
2023/08/24 04:09:27;;;;;;;4.78;3.90;;;;;22.60;98592.00;;;;5093989;28;20040;-66
2023/08/24 04:11:54;;;;;;;14.88;12.05;;;;;22.60;98587.00;;;;5095248;28;20413;-67
2023/08/24 04:14:21;;;;;;;5.97;4.25;;;;;22.60;98590.00;;;;5093983;28;20737;-66
2023/08/24 04:16:47;;;;;;;7.10;3.67;;;;;22.60;98588.00;;;;5093794;28;20438;-67
2023/08/24 04:19:14;;;;;;;5.50;4.25;;;;;22.60;98592.00;;;;5092625;28;20526;-67
2023/08/24 04:21:41;;;;;;;7.85;4.45;;;;;22.70;98603.00;;;;5092407;28;20036;-66
2023/08/24 04:24:07;;;;;;;7.30;5.95;;;;;22.70;98606.00;;;;5092269;28;20123;-66
2023/08/24 04:26:34;;;;;;;6.35;4.97;;;;;22.70;98607.00;;;;5093834;28;20127;-66
2023/08/24 04:29:01;;;;;;;9.32;4.97;;;;;22.70;98609.00;;;;5093426;28;20113;-67
2023/08/24 04:31:27;;;;;;;6.47;4.20;;;;;22.70;98606.00;;;;5093020;28;20119;-66
2023/08/24 04:33:54;;;;;;;8.35;4.65;;;;;22.70;98610.00;;;;5093439;28;20050;-66
2023/08/24 04:36:21;;;;;;;8.25;4.32;;;;;22.70;98613.00;;;;5093250;28;20127;-66
2023/08/24 04:38:47;;;;;;;6.25;4.03;;;;;22.60;98617.00;;;;5092049;28;20044;-67
2023/08/24 04:41:15;;;;;;;5.50;3.85;;;;;22.60;98625.00;;;;5093240;28;20043;-66
2023/08/24 04:43:42;;;;;;;3.85;3.47;;;;;22.60;98631.00;;;;5093080;28;20123;-64
2023/08/24 04:46:08;;;;;;;8.43;3.97;;;;;22.60;98647.00;;;;5093190;28;20607;-65
2023/08/24 04:48:35;;;;;;;6.43;3.40;;;;;22.50;98666.00;;;;5093047;28;20040;-65
2023/08/24 04:51:02;;;;;;;3.80;3.40;;;;;22.50;98687.00;;;;5093043;28;20126;-65
2023/08/24 04:53:29;;;;;;;6.75;3.90;;;;;22.40;98706.00;;;;5092282;28;20078;-65
2023/08/24 04:55:56;;;;;;;5.43;3.55;;;;;22.30;98737.00;;;;5075706;28;20576;-66
2023/08/24 04:58:23;;;;;;;5.45;3.92;;;;;22.30;98760.00;;;;5093381;28;20580;-65
2023/08/24 05:00:49;;;;;;;3.83;3.35;;;;;22.30;98784.00;;;;5093405;28;20044;-65
2023/08/24 05:03:16;;;;;;;5.53;3.33;;;;;22.30;98810.00;;;;5092303;28;20089;-65
2023/08/24 05:05:44;;;;;;;3.85;3.10;;;;;22.30;98809.00;;;;5097547;28;20082;-65
2023/08/24 05:08:11;;;;;;;6.82;3.55;;;;;22.40;98813.00;;;;5097934;28;20044;-66
2023/08/24 05:10:39;;;;;;;8.43;3.13;;;;;22.40;98798.00;;;;5095882;28;20040;-66
2023/08/24 05:13:06;;;;;;;3.60;3.03;;;;;22.40;98793.00;;;;5095443;28;20076;-65
2023/08/24 05:15:32;;;;;;;5.88;3.95;;;;;22.40;98779.00;;;;5097572;28;20052;-65
2023/08/24 05:17:59;;;;;;;8.50;3.78;;;;;22.50;98785.00;;;;5098157;28;20108;-65
2023/08/24 05:20:26;;;;;;;8.82;3.60;;;;;22.60;98786.00;;;;5097647;28;20040;-65
2023/08/24 05:22:57;;;;;;;5.25;3.53;;;;;22.70;98783.00;;;;5095813;28;20131;-65
2023/08/24 05:25:24;;;;;;;4.35;3.45;;;;;22.80;98779.00;;;;5097700;28;20084;-66
2023/08/24 05:27:50;;;;;;;7.72;3.42;;;;;22.90;98778.00;;;;5098006;28;20484;-65
2023/08/24 05:30:18;;;;;;;8.02;4.28;;;;;22.90;98768.00;;;;5097742;28;20507;-65
2023/08/24 05:32:44;;;;;;;7.43;4.15;;;;;22.90;98768.00;;;;5096934;28;20044;-66
2023/08/24 05:35:11;;;;;;;4.72;3.92;;;;;23.00;98775.00;;;;5095202;28;20539;-66
2023/08/24 05:37:38;;;;;;;6.03;3.75;;;;;23.00;98769.00;;;;5097444;28;20060;-66
2023/08/24 05:40:05;;;;;;;5.35;3.15;;;;;22.90;98752.00;;;;5098227;28;20048;-65
2023/08/24 05:42:31;;;;;;;6.90;3.70;;;;;22.90;98748.00;;;;5096685;28;20052;-66
2023/08/24 05:44:58;;;;;;;9.02;4.20;;;;;23.00;98738.00;;;;5095466;28;20404;-66
2023/08/24 05:47:25;;;;;;;7.65;4.15;;;;;22.80;98715.00;;;;5096515;28;20040;-66
2023/08/24 05:49:51;;;;;;;7.70;4.05;;;;;22.70;98709.00;;;;5095983;28;20101;-67
2023/08/24 05:52:18;;;;;;;5.50;4.13;;;;;22.90;98707.00;;;;5097180;28;20126;-66
2023/08/24 05:54:44;;;;;;;6.70;4.32;;;;;23.00;98702.00;;;;5098066;28;20070;-66
2023/08/24 05:57:11;;;;;;;9.23;4.40;;;;;23.00;98697.00;;;;5099660;28;20048;-66
2023/08/24 05:59:38;;;;;;;8.75;4.00;;;;;22.80;98684.00;;;;5096951;28;20040;-66
2023/08/24 06:02:05;;;;;;;7.18;4.03;;;;;22.80;98683.00;;;;5102085;28;20094;-67
2023/08/24 06:04:31;;;;;;;6.28;4.10;;;;;22.70;98673.00;;;;5103574;28;20103;-66
2023/08/24 06:06:58;;;;;;;5.28;4.03;;;;;22.70;98672.00;;;;5102374;28;20043;-66
2023/08/24 06:09:24;;;;;;;8.95;3.90;;;;;22.70;98670.00;;;;5102365;28;20048;-65
2023/08/24 06:11:51;;;;;;;6.72;4.13;;;;;22.70;98668.00;;;;5099947;28;20127;-66
2023/08/24 06:14:18;;;;;;;4.30;3.70;;;;;22.80;98672.00;;;;5096239;28;20052;-66
2023/08/24 06:16:44;;;;;;;7.03;3.70;;;;;22.80;98672.00;;;;5098618;28;20127;-65
2023/08/24 06:19:11;;;;;;;6.05;3.67;;;;;22.90;98675.00;;;;5097897;28;20052;-66
2023/08/24 06:21:37;;;;;;;6.07;3.78;;;;;23.10;98689.00;;;;5099258;28;20123;-66
2023/08/24 06:24:04;;;;;;;5.90;4.00;;;;;23.20;98686.00;;;;5096919;28;20500;-66
2023/08/24 06:26:30;;;;;;;6.57;3.70;;;;;23.20;98696.00;;;;5096452;28;20101;-65
2023/08/24 06:28:57;;;;;;;5.65;3.80;;;;;23.30;98695.00;;;;5094358;28;20452;-66
2023/08/24 06:31:24;;;;;;;5.65;3.40;;;;;23.40;98702.00;;;;5096728;28;20054;-66
2023/08/24 06:33:50;;;;;;;13.38;3.75;;;;;23.50;98693.00;;;;5096706;28;20043;-66
2023/08/24 06:36:17;;;;;;;6.18;3.50;;;;;23.50;98695.00;;;;5096209;28;20501;-66
2023/08/24 06:38:43;;;;;;;8.75;3.08;;;;;23.60;98694.00;;;;5095079;28;20526;-66
2023/08/24 06:41:12;;;;;;;6.05;4.93;;;;;23.60;98688.00;;;;5095820;28;20105;-66
2023/08/24 06:43:39;;;;;;;5.82;4.10;;;;;23.70;98671.00;;;;5094601;28;20098;-66
2023/08/24 06:46:08;;;;;;;5.57;3.42;;;;;23.80;98665.00;;;;5094500;28;20109;-66
2023/08/24 06:48:37;;;;;;;9.60;4.50;;;;;24.10;98655.00;;;;5095946;28;20090;-66
2023/08/24 06:51:03;;;;;;;6.75;4.13;;;;;24.20;98655.00;;;;5095325;28;20059;-65
2023/08/24 06:53:30;;;;;;;11.13;6.20;;;;;24.30;98663.00;;;;5095042;28;20580;-66
2023/08/24 06:55:57;;;;;;;5.30;3.80;;;;;24.40;98669.00;;;;5096188;28;20062;-66
2023/08/24 06:58:24;;;;;;;9.52;4.57;;;;;24.50;98681.00;;;;5095874;28;20040;-66
2023/08/24 07:00:50;;;;;;;5.57;4.35;;;;;24.60;98693.00;;;;5095048;28;20501;-66
2023/08/24 07:03:18;;;;;;;6.28;3.50;;;;;24.80;98712.00;;;;5095246;28;20034;-64
2023/08/24 07:05:45;;;;;;;8.25;3.30;;;;;24.80;98733.00;;;;5093479;28;20048;-64
2023/08/24 07:08:13;;;;;;;6.70;3.72;;;;;24.70;98746.00;;;;5094951;28;20101;-64
2023/08/24 07:10:39;;;;;;;12.77;3.72;;;;;24.60;98737.00;;;;5094593;28;20119;-63
2023/08/24 07:13:07;;;;;;;5.15;3.17;;;;;24.40;98736.00;;;;5093456;28;20484;-64
2023/08/24 07:15:34;;;;;;;5.80;3.28;;;;;24.30;98735.00;;;;5094838;28;20036;-64
2023/08/24 07:18:02;;;;;;;5.03;3.90;;;;;24.30;98718.00;;;;5094849;28;20100;-64
2023/08/24 07:20:29;;;;;;;5.95;4.15;;;;;24.30;98735.00;;;;5094262;28;20040;-64
2023/08/24 07:22:57;;;;;;;6.15;4.35;;;;;24.40;98729.00;;;;5094483;28;20035;-64
2023/08/24 07:25:23;;;;;;;4.03;3.63;;;;;24.50;98728.00;;;;5094566;28;20385;-64
2023/08/24 07:27:50;;;;;;;5.03;3.47;;;;;24.40;98721.00;;;;5094407;28;20047;-62
2023/08/24 07:30:17;;;;;;;8.50;4.40;;;;;24.60;98706.00;;;;5093926;28;20394;-63
2023/08/24 07:33:00;;;;;;;5.90;4.05;;;;;24.90;98695.00;;;;5094627;28;20044;-63
2023/08/24 07:35:27;;;;;;;6.05;3.65;;;;;24.90;98678.00;;;;5094866;28;20551;-65
2023/08/24 07:37:54;;;;;;;5.03;3.40;;;;;25.00;98677.00;;;;5094559;28;20120;-66
2023/08/24 07:40:20;;;;;;;4.70;3.72;;;;;24.90;98668.00;;;;5094080;28;20551;-66
2023/08/24 07:42:53;;;;;;;6.82;3.22;;;;;25.10;98658.00;;;;5094597;28;20036;-64
2023/08/24 07:45:20;;;;;;;4.70;3.15;;;;;25.30;98656.00;;;;5095123;28;20044;-64
2023/08/24 07:47:46;;;;;;;5.55;4.22;;;;;25.50;98650.00;;;;5094534;28;20446;-64
2023/08/24 07:50:13;;;;;;;4.70;3.50;;;;;25.70;98643.00;;;;5094076;28;20558;-65
2023/08/24 07:52:41;;;;;;;5.40;3.42;;;;;25.90;98642.00;;;;5094270;28;20508;-64
2023/08/24 07:55:08;;;;;;;4.80;3.28;;;;;25.80;98636.00;;;;5093941;28;20135;-64
2023/08/24 07:57:36;;;;;;;4.65;3.28;;;;;25.80;98637.00;;;;5092857;28;20399;-64
2023/08/24 08:00:04;;;;;;;7.60;4.40;;;;;25.90;98625.00;;;;5076304;28;20518;-64
2023/08/24 08:02:41;;;;;;;5.22;3.17;;;;;25.90;98616.00;;;;5093969;28;20115;-65
2023/08/24 08:05:10;;;;;;;4.55;4.15;;;;;26.00;98614.00;;;;5093527;28;20040;-65
2023/08/24 08:07:36;;;;;;;4.20;3.38;;;;;26.00;98623.00;;;;5093627;28;20089;-65
2023/08/24 08:10:06;;;;;;;4.15;3.42;;;;;26.20;98618.00;;;;5092006;28;20111;-65
2023/08/24 08:12:33;;;;;;;6.30;3.58;;;;;26.20;98637.00;;;;5093321;28;20112;-64
2023/08/24 08:15:00;;;;;;;5.95;3.38;;;;;26.30;98637.00;;;;5093193;28;20477;-65
2023/08/24 08:17:30;;;;;;;7.07;3.25;;;;;26.40;98646.00;;;;5093233;28;20139;-64
2023/08/24 08:19:57;;;;;;;8.18;3.30;;;;;26.60;98650.00;;;;5091540;28;20056;-65
2023/08/24 08:22:25;;;;;;;4.82;3.70;;;;;26.70;98636.00;;;;5092938;28;20123;-64
2023/08/24 08:24:54;;;;;;;7.10;4.13;;;;;26.70;98620.00;;;;5092576;28;20512;-64
2023/08/24 08:27:21;;;;;;;4.95;3.30;;;;;26.60;98591.00;;;;5093097;28;20040;-65
2023/08/24 08:29:48;;;;;;;5.03;3.35;;;;;26.50;98573.00;;;;5092677;28;20043;-64
2023/08/24 08:32:15;;;;;;;4.60;3.67;;;;;26.50;98559.00;;;;5093022;28;20050;-65
2023/08/24 08:34:41;;;;;;;6.65;3.67;;;;;26.70;98565.00;;;;5092874;28;20127;-65
2023/08/24 08:37:08;;;;;;;5.30;3.83;;;;;27.00;98580.00;;;;5092941;28;20044;-64
2023/08/24 08:39:34;;;;;;;10.43;4.45;;;;;27.20;98576.00;;;;5093016;28;20485;-64
2023/08/24 08:42:01;;;;;;;4.60;3.38;;;;;27.40;98579.00;;;;5091695;28;20489;-64
2023/08/24 08:44:32;;;;;;;6.68;3.60;;;;;27.60;98573.00;;;;5092795;28;20043;-64
2023/08/24 08:46:59;;;;;;;4.72;3.25;;;;;27.70;98572.00;;;;5092850;28;20047;-64
2023/08/24 08:49:26;;;;;;;4.28;3.15;;;;;27.80;98572.00;;;;5091187;28;20442;-64
2023/08/24 08:51:52;;;;;;;4.18;2.95;;;;;28.00;98575.00;;;;5091493;28;20101;-63
2023/08/24 08:54:19;;;;;;;3.28;2.97;;;;;28.10;98563.00;;;;5092444;28;20040;-63
2023/08/24 08:56:46;;;;;;;4.40;3.35;;;;;28.10;98562.00;;;;5091349;28;20161;-64
2023/08/24 08:59:14;;;;;;;5.50;3.28;;;;;28.10;98553.00;;;;5092649;28;20127;-64
2023/08/24 09:01:41;;;;;;;8.27;2.95;;;;;28.30;98546.00;;;;5092614;28;20063;-65
2023/08/24 09:04:09;;;;;;;5.22;2.83;;;;;28.50;98541.00;;;;5091028;28;20162;-65
2023/08/24 09:06:36;;;;;;;4.40;3.05;;;;;28.60;98538.00;;;;5092221;28;20040;-64
2023/08/24 09:09:04;;;;;;;5.82;2.78;;;;;28.60;98523.00;;;;5092291;28;20513;-65
2023/08/24 09:11:31;;;;;;;4.75;3.17;;;;;28.60;98516.00;;;;5090750;28;20056;-64
2023/08/24 09:13:57;;;;;;;9.93;3.13;;;;;28.80;98508.00;;;;5092689;28;20378;-64
2023/08/24 09:16:29;;;;;;;3.58;2.88;;;;;28.90;98500.00;;;;5092268;28;20044;-65
2023/08/24 09:18:55;;;;;;;4.32;3.80;;;;;29.10;98498.00;;;;5091939;28;20396;-65
2023/08/24 09:21:23;;;;;;;3.45;2.85;;;;;29.20;98490.00;;;;5091849;28;20044;-65
2023/08/24 09:23:55;;;;;;;9.88;3.15;;;;;29.40;98493.00;;;;5090611;28;20127;-65
2023/08/24 09:26:29;;;;;;;6.43;3.30;;;;;29.40;98486.00;;;;5091799;28;20050;-65
2023/08/24 09:28:57;;;;;;;6.65;2.80;;;;;29.50;98474.00;;;;5092112;28;20123;-65
2023/08/24 09:31:36;;;;;;;4.28;2.80;;;;;29.60;98464.00;;;;5092254;28;20086;-64
2023/08/24 09:34:03;;;;;;;5.47;3.17;;;;;29.60;98469.00;;;;5092011;28;20119;-64
2023/08/24 09:36:34;;;;;;;3.95;3.10;;;;;29.60;98457.00;;;;5091246;28;20408;-64
2023/08/24 09:39:04;;;;;;;6.13;2.70;;;;;29.60;98467.00;;;;5092183;28;20549;-65
2023/08/24 09:41:40;;;;;;;6.30;2.72;;;;;29.60;98459.00;;;;5091884;28;20043;-65
2023/08/24 09:44:08;;;;;;;3.88;3.00;;;;;29.60;98468.00;;;;5092002;28;20396;-65
2023/08/24 09:46:37;;;;;;;3.50;2.70;;;;;29.80;98461.00;;;;5091912;28;20036;-65
2023/08/24 09:49:05;;;;;;;4.03;3.10;;;;;30.10;98466.00;;;;5092102;28;20051;-65
2023/08/24 09:51:34;;;;;;;4.70;2.67;;;;;30.30;98463.00;;;;5091806;28;20127;-65
2023/08/24 09:54:06;;;;;;;4.90;2.83;;;;;30.50;98457.00;;;;5090581;28;20408;-65
2023/08/24 09:56:38;;;;;;;3.27;2.50;;;;;30.70;98458.00;;;;5090772;28;20070;-65
2023/08/24 09:59:18;;;;;;;3.42;2.28;;;;;30.70;98449.00;;;;5092073;28;20044;-64
2023/08/24 10:01:47;;;;;;;6.60;2.55;;;;;30.80;98442.00;;;;5091835;28;20064;-64
2023/08/24 10:04:16;;;;;;;3.55;2.60;;;;;30.80;98440.00;;;;5092026;28;20040;-64
2023/08/24 10:06:50;;;;;;;5.80;2.83;;;;;31.00;98429.00;;;;5091771;28;20048;-64
2023/08/24 10:09:22;;;;;;;4.40;2.90;;;;;30.90;98421.00;;;;5091809;28;20445;-64
2023/08/24 10:11:55;;;;;;;6.78;3.28;;;;;30.90;98429.00;;;;5091820;28;20485;-63
2023/08/24 10:14:28;;;;;;;5.13;3.55;;;;;30.80;98435.00;;;;5090426;28;20072;-63
2023/08/24 10:16:56;;;;;;;5.50;2.63;;;;;30.90;98427.00;;;;5091751;28;20047;-63
2023/08/24 10:19:24;;;;;;;2.67;2.40;;;;;30.90;98421.00;;;;5091451;28;20051;-63
2023/08/24 10:21:53;;;;;;;3.33;2.70;;;;;31.00;98426.00;;;;5091687;28;20122;-63
2023/08/24 10:24:21;;;;;;;4.75;2.53;;;;;31.10;98421.00;;;;5091451;28;20470;-63
2023/08/24 10:26:48;;;;;;;3.55;2.53;;;;;31.00;98409.00;;;;5090768;28;20051;-63
2023/08/24 10:29:16;;;;;;;7.97;2.78;;;;;31.20;98405.00;;;;5091312;28;20051;-63
2023/08/24 10:31:44;;;;;;;6.18;3.00;;;;;31.20;98398.00;;;;5091666;28;20044;-63
2023/08/24 10:34:11;;;;;;;5.35;2.80;;;;;31.30;98404.00;;;;5091433;28;20036;-63
2023/08/24 10:36:41;;;;;;;3.75;2.53;;;;;31.40;98400.00;;;;5090214;28;20135;-63
2023/08/24 10:39:08;;;;;;;3.50;2.42;;;;;31.40;98409.00;;;;5091390;28;20036;-63
2023/08/24 10:41:53;;;;;;;3.55;2.13;;;;;31.50;98409.00;;;;5091243;28;20520;-63
2023/08/24 10:44:33;;;;;;;4.90;2.72;;;;;31.60;98413.00;;;;5091185;28;20078;-63
2023/08/24 10:47:16;;;;;;;4.57;2.53;;;;;31.70;98424.00;;;;5092197;28;20044;-63
2023/08/24 10:49:42;;;;;;;;;;;;;31.90;98420.00;;;;5095411;28;20048;-63
2023/08/24 10:52:33;;;;;;;3.90;2.95;;;;;32.00;98420.00;;;;5095397;28;19928;-64
2023/08/24 10:55:04;;;;;;;2.85;2.40;;;;;32.20;98419.00;;;;5093997;28;20396;-63
2023/08/24 10:57:38;;;;;;;4.60;2.65;;;;;32.10;98421.00;;;;5094951;28;20131;-63
2023/08/24 11:00:11;;;;;;;3.05;2.38;;;;;32.10;98409.00;;;;5094667;28;20113;-63
2023/08/24 11:02:42;;;;;;;9.38;2.75;;;;;32.30;98410.00;;;;5094931;28;20048;-63
2023/08/24 11:05:30;;;;;;;5.18;2.47;;;;;32.50;98402.00;;;;5094874;28;20072;-63
2023/08/24 11:07:59;;;;;;;6.45;3.17;;;;;32.50;98402.00;;;;5094851;28;20051;-63
2023/08/24 11:10:46;;;;;;;6.45;2.63;;;;;32.60;98394.00;;;;5093487;28;20051;-62
2023/08/24 11:13:14;;;;;;;4.00;2.70;;;;;32.50;98390.00;;;;5094664;28;20110;-62
2023/08/24 11:15:43;;;;;;;3.88;2.55;;;;;32.60;98383.00;;;;5094753;28;20044;-63
2023/08/24 11:18:19;;;;;;;4.03;2.75;;;;;32.60;98381.00;;;;5094541;28;20413;-63
2023/08/24 11:20:47;;;;;;;5.53;3.20;;;;;32.50;98373.00;;;;5094463;28;20047;-63
2023/08/24 11:23:18;;;;;;;5.53;2.92;;;;;32.50;98369.00;;;;5093336;28;20076;-63
2023/08/24 11:25:46;;;;;;;5.22;2.85;;;;;32.50;98362.00;;;;5094727;28;20052;-63
2023/08/24 11:28:18;;;;;;;4.35;2.67;;;;;32.50;98362.00;;;;5093715;28;20298;-63
2023/08/24 11:30:46;;;;;;;3.50;2.78;;;;;32.50;98358.00;;;;5093141;28;20079;-63
2023/08/24 11:33:14;;;;;;;5.88;3.25;;;;;32.60;98347.00;;;;5094597;28;20454;-63
2023/08/24 11:35:43;;;;;;;7.70;3.40;;;;;32.70;98349.00;;;;5094268;28;20127;-63
2023/08/24 11:38:10;;;;;;;5.43;3.13;;;;;32.60;98344.00;;;;5094235;28;20048;-63
2023/08/24 11:40:37;;;;;;;3.42;3.10;;;;;32.70;98344.00;;;;5094121;28;20047;-63
2023/08/24 11:43:05;;;;;;;6.18;2.67;;;;;32.70;98353.00;;;;5094208;28;20040;-63
2023/08/24 11:45:34;;;;;;;3.10;2.80;;;;;32.60;98360.00;;;;5094244;28;20044;-63
2023/08/24 11:48:02;;;;;;;4.38;3.03;;;;;32.60;98360.00;;;;5094268;28;20047;-64
2023/08/24 11:50:29;;;;;;;3.70;2.80;;;;;32.70;98364.00;;;;5093796;28;20493;-64
2023/08/24 11:52:56;;;;;;;4.60;2.78;;;;;32.70;98353.00;;;;5094256;28;20566;-64
2023/08/24 11:55:23;;;;;;;5.00;3.22;;;;;32.80;98344.00;;;;5094028;28;20072;-64
2023/08/24 11:57:51;;;;;;;4.50;3.35;;;;;32.80;98339.00;;;;5093891;28;20054;-64
2023/08/24 12:00:20;;;;;;;4.38;3.22;;;;;32.80;98336.00;;;;5091876;28;20048;-64
2023/08/24 12:02:48;;;;;;;4.07;3.20;;;;;32.80;98336.00;;;;5094040;28;20050;-65
2023/08/24 12:05:25;;;;;;;5.30;3.75;;;;;32.80;98326.00;;;;5093453;28;20493;-64
2023/08/24 12:07:53;;;;;;;7.38;3.78;;;;;32.90;98319.00;;;;5093854;28;20055;-64
2023/08/24 12:10:21;;;;;;;4.63;3.55;;;;;32.90;98317.00;;;;5093586;28;20044;-64
2023/08/24 12:12:48;;;;;;;4.35;3.55;;;;;32.90;98315.00;;;;5093522;28;20471;-65
2023/08/24 12:15:22;;;;;;;7.10;3.88;;;;;33.00;98302.00;;;;5093549;28;20055;-65
2023/08/24 12:17:49;;;;;;;5.70;3.95;;;;;32.90;98300.00;;;;5093368;28;20044;-64
2023/08/24 12:20:21;;;;;;;5.35;3.58;;;;;32.90;98301.00;;;;5093437;28;20046;-65
2023/08/24 12:22:52;;;;;;;3.53;3.20;;;;;32.90;98292.00;;;;5092113;28;20044;-64
2023/08/24 12:25:23;;;;;;;7.28;3.50;;;;;32.80;98288.00;;;;5093464;28;20090;-64